Happy Valley, Nevada
Current Conditions -  °F | °C
As of 11:55 PM on Thursday 27 Nov 2014 (Local Time) from KRNO Reporting Station
Few Clouds Few Clouds  
Wind Chill: 44°   Ceiling: Unl
Heat Index: 47°   Visibility: 10mi
Dew Point: 16°   Wind: 7mph
Humidity: 29%   Direction: 20°NNE
Pressure: 30.09"   Gusts: NA
Location:  39.5386°N, 119.749°W
Report Text: KRNO 280755Z 02006KT 10SM FEW200 08/M09 A3009 RMK AO2 SLP166 T00831089 402280050
Loading
Personal Weather Stations






























Interactive Weather Map New forecast layout! Learn more

10-Day Weather Forecast

Advertisements
Track Severe Weather on mobile